createdAt,value
2018-07-05T00:00:18.737Z,940.37
2018-07-05T00:01:26.696Z,940.39
2018-07-05T00:02:34.751Z,940.36
2018-07-05T00:03:42.823Z,940.38
2018-07-05T00:04:50.884Z,940.37
2018-07-05T00:05:59.254Z,940.39
2018-07-05T00:07:07.018Z,940.36
2018-07-05T00:08:15.608Z,940.38
2018-07-05T00:09:23.338Z,940.34
2018-07-05T00:10:31.385Z,940.32
2018-07-05T00:11:39.588Z,940.34
2018-07-05T00:12:47.584Z,940.36
2018-07-05T00:13:55.612Z,940.36
2018-07-05T00:15:03.661Z,940.34
2018-07-05T00:16:11.723Z,940.33
2018-07-05T00:17:19.924Z,940.29
2018-07-05T00:18:28.920Z,940.24
2018-07-05T00:19:35.942Z,940.18
2018-07-05T00:20:44.000Z,940.13
2018-07-05T00:21:52.043Z,940.07
2018-07-05T00:23:00.181Z,940.07
2018-07-05T00:24:08.198Z,940.02
2018-07-05T00:25:16.268Z,940.02
2018-07-05T00:26:24.331Z,940.02
2018-07-05T00:27:32.486Z,940.00
2018-07-05T00:28:40.666Z,940.00
2018-07-05T00:29:48.825Z,940.00
2018-07-05T00:30:56.786Z,939.98
2018-07-05T00:32:05.134Z,940.00
2018-07-05T00:33:12.983Z,940.03
2018-07-05T00:34:21.025Z,940.04
2018-07-05T00:35:29.066Z,940.07
2018-07-05T00:36:37.121Z,940.07
2018-07-05T00:37:45.312Z,940.10
2018-07-05T00:38:53.259Z,940.09
2018-07-05T00:40:01.309Z,940.06
2018-07-05T00:41:09.393Z,940.08
2018-07-05T00:42:17.447Z,940.11
2018-07-05T00:43:25.644Z,940.10
2018-07-05T00:44:33.717Z,940.11
2018-07-05T00:45:41.649Z,940.07
2018-07-05T00:46:49.714Z,940.07
2018-07-05T00:47:57.781Z,940.06
2018-07-05T00:49:05.986Z,940.03
2018-07-05T00:50:13.909Z,940.04
2018-07-05T00:51:21.942Z,940.04
2018-07-05T00:52:30.028Z,940.10
2018-07-05T00:53:38.119Z,940.11
2018-07-05T00:54:46.294Z,940.13
2018-07-05T00:55:54.241Z,940.20
2018-07-05T00:57:02.298Z,940.24
2018-07-05T00:58:10.415Z,940.21
2018-07-05T00:59:18.435Z,940.24
2018-07-05T01:00:26.606Z,940.25
2018-07-05T01:01:34.567Z,940.26
2018-07-05T01:02:43.190Z,940.28
2018-07-05T01:03:50.704Z,940.28
2018-07-05T01:04:59.104Z,940.27
2018-07-05T01:06:06.879Z,940.25
2018-07-05T01:07:15.235Z,940.23
2018-07-05T01:08:23.179Z,940.26
2018-07-05T01:09:31.233Z,940.27
2018-07-05T01:10:39.312Z,940.28
2018-07-05T01:11:47.491Z,940.32
2018-07-05T01:12:55.444Z,940.27
2018-07-05T01:14:03.668Z,940.27
2018-07-05T01:15:11.562Z,940.26
2018-07-05T01:16:19.690Z,940.22
2018-07-05T01:17:27.765Z,940.21
2018-07-05T01:18:35.883Z,940.26
2018-07-05T01:19:43.843Z,940.22
2018-07-05T01:20:51.914Z,940.22
2018-07-05T01:21:59.993Z,940.22
2018-07-05T01:25:33.270Z,940.24
2018-07-05T01:26:41.307Z,940.25
2018-07-05T01:27:49.454Z,940.21
2018-07-05T01:28:57.469Z,940.19
2018-07-05T01:30:05.526Z,940.19
2018-07-05T01:31:13.892Z,940.18
2018-07-05T01:32:24.787Z,940.18
2018-07-05T01:33:29.736Z,940.21
2018-07-05T01:34:38.151Z,940.18
2018-07-05T01:35:47.076Z,940.18
2018-07-05T01:36:54.129Z,940.13
2018-07-05T01:38:02.322Z,940.16
2018-07-05T01:39:10.255Z,940.17
2018-07-05T01:40:18.322Z,940.13
2018-07-05T01:41:26.385Z,940.12
2018-07-05T01:42:34.455Z,940.13
2018-07-05T01:43:42.566Z,940.11
2018-07-05T01:44:50.704Z,940.12
2018-07-05T01:45:58.663Z,940.06
2018-07-05T01:47:06.728Z,940.10
2018-07-05T01:48:14.781Z,940.07
2018-07-05T01:49:22.891Z,940.04
2018-07-05T01:50:30.928Z,940.05
2018-07-05T01:51:39.340Z,940.06
2018-07-05T01:52:47.059Z,940.05
2018-07-05T01:53:55.126Z,940.07
2018-07-05T01:55:03.292Z,940.07
2018-07-05T01:56:11.244Z,940.07
2018-07-05T01:57:19.686Z,940.03
2018-07-05T01:58:28.440Z,940.06
2018-07-05T01:59:37.311Z,940.03
2018-07-05T02:00:45.256Z,940.02
2018-07-05T02:01:53.191Z,940.00
2018-07-05T02:03:01.252Z,940.01
2018-07-05T02:04:09.344Z,940.06
2018-07-05T02:05:17.397Z,940.05
2018-07-05T02:06:25.616Z,940.06
2018-07-05T02:07:33.529Z,940.08
2018-07-05T02:08:41.842Z,940.05
2018-07-05T02:09:49.678Z,940.10
2018-07-05T02:10:57.728Z,940.11
2018-07-05T02:12:06.169Z,940.07
2018-07-05T02:13:13.919Z,940.08
2018-07-05T02:14:21.916Z,940.07
2018-07-05T02:15:30.008Z,940.01
2018-07-05T02:16:38.183Z,939.98
2018-07-05T02:17:47.316Z,939.99
2018-07-05T02:18:54.196Z,939.97
2018-07-05T02:20:02.263Z,939.95
2018-07-05T02:21:10.340Z,940.02
2018-07-05T02:22:18.417Z,940.05
2018-07-05T02:23:26.733Z,940.01
2018-07-05T02:24:35.015Z,940.04
2018-07-05T02:25:42.897Z,940.04
2018-07-05T02:26:50.881Z,940.09
2018-07-05T02:27:59.006Z,940.32
2018-07-05T02:29:07.002Z,940.69
2018-07-05T02:30:15.088Z,940.61
2018-07-05T02:31:23.150Z,940.60
2018-07-05T02:32:31.242Z,940.54
2018-07-05T02:33:39.553Z,940.62
2018-07-05T02:34:47.358Z,940.70
2018-07-05T02:35:55.418Z,940.68
2018-07-05T02:37:03.489Z,940.69
2018-07-05T02:38:11.892Z,940.67
2018-07-05T02:39:19.768Z,940.63
2018-07-05T02:40:27.683Z,940.62
2018-07-05T02:41:35.748Z,940.57
2018-07-05T02:42:43.827Z,940.54
2018-07-05T02:43:52.002Z,940.62
2018-07-05T02:44:59.990Z,940.61
2018-07-05T02:46:08.057Z,940.68
2018-07-05T02:47:16.382Z,940.66
2018-07-05T02:48:24.238Z,940.62
2018-07-05T02:49:32.368Z,940.58
2018-07-05T02:50:40.328Z,940.61
2018-07-05T02:51:48.596Z,940.57
2018-07-05T02:52:56.664Z,940.54
2018-07-05T02:54:04.729Z,940.61
2018-07-05T02:55:12.896Z,940.65
2018-07-05T02:56:20.920Z,940.68
2018-07-05T02:57:28.928Z,940.68
2018-07-05T02:58:37.033Z,940.75
2018-07-05T02:59:45.077Z,940.74
2018-07-05T03:00:53.250Z,940.77
2018-07-05T03:02:01.289Z,940.75
2018-07-05T03:03:09.271Z,940.77
2018-07-05T03:04:17.341Z,940.75
2018-07-05T03:05:25.390Z,940.71
2018-07-05T03:06:33.579Z,940.69
2018-07-05T03:07:41.504Z,940.68
2018-07-05T03:08:49.738Z,940.63
2018-07-05T03:09:57.673Z,940.61
2018-07-05T03:11:05.743Z,940.60
2018-07-05T03:12:13.931Z,940.58
2018-07-05T03:13:21.853Z,940.59
2018-07-05T03:14:29.943Z,940.59
2018-07-05T03:15:38.013Z,940.60
2018-07-05T03:16:46.082Z,940.61
2018-07-05T03:17:54.211Z,940.61
2018-07-05T03:19:02.212Z,940.61
2018-07-05T03:20:10.297Z,940.67
2018-07-05T03:21:18.350Z,940.68
2018-07-05T03:22:26.463Z,940.73
2018-07-05T03:23:34.496Z,940.66
2018-07-05T03:24:42.668Z,940.74
2018-07-05T03:25:50.622Z,940.69
2018-07-05T03:26:58.703Z,940.66
2018-07-05T03:28:06.806Z,940.70
2018-07-05T03:29:14.831Z,940.68
2018-07-05T03:30:22.891Z,940.72
2018-07-05T03:31:30.969Z,940.71
2018-07-05T03:32:39.069Z,940.72
2018-07-05T03:33:47.116Z,940.71
2018-07-05T03:34:55.436Z,940.75
2018-07-05T03:36:03.232Z,940.76
2018-07-05T03:37:11.284Z,940.77
2018-07-05T03:38:19.720Z,940.79
2018-07-05T03:39:27.645Z,940.82
2018-07-05T03:40:35.759Z,940.81
2018-07-05T03:41:43.779Z,940.83
2018-07-05T03:42:51.993Z,940.82
2018-07-05T03:44:00.035Z,940.78
2018-07-05T03:45:09.642Z,940.80
2018-07-05T03:46:17.298Z,940.81
2018-07-05T03:47:24.713Z,940.83
2018-07-05T03:48:32.779Z,940.81
2018-07-05T03:49:40.952Z,940.86
2018-07-05T03:50:50.118Z,940.86
2018-07-05T03:51:59.797Z,940.82
2018-07-05T03:53:06.252Z,940.82
2018-07-05T03:54:14.315Z,940.85
2018-07-05T03:55:22.720Z,940.79
2018-07-05T03:56:32.139Z,940.83
2018-07-05T03:57:38.748Z,940.84
2018-07-05T03:58:46.781Z,940.82
2018-07-05T03:59:54.896Z,940.88
2018-07-05T04:01:03.127Z,940.83
2018-07-05T04:02:11.588Z,940.79
2018-07-05T04:03:19.241Z,940.78
2018-07-05T04:04:27.403Z,940.76
2018-07-05T04:05:35.370Z,940.73
2018-07-05T04:06:43.487Z,940.79
2018-07-05T04:07:51.536Z,940.82
2018-07-05T04:08:59.891Z,940.73
2018-07-05T04:10:07.655Z,940.79
2018-07-05T04:11:15.722Z,940.76
2018-07-05T04:12:23.914Z,940.74
2018-07-05T04:13:31.817Z,940.73
2018-07-05T04:14:39.948Z,940.73
2018-07-05T04:15:48.114Z,940.72
2018-07-05T04:16:56.111Z,940.72
2018-07-05T04:18:04.187Z,940.75
2018-07-05T04:19:12.605Z,940.75
2018-07-05T04:20:20.608Z,940.74
2018-07-05T04:21:28.319Z,940.71
2018-07-05T04:22:36.518Z,940.73
2018-07-05T04:23:44.950Z,940.72
2018-07-05T04:24:52.535Z,940.69
2018-07-05T04:26:00.586Z,940.70
2018-07-05T04:27:08.664Z,940.70
2018-07-05T04:28:16.859Z,940.72
2018-07-05T04:29:24.798Z,940.80
2018-07-05T04:30:32.871Z,940.79
2018-07-05T04:31:40.929Z,940.82
2018-07-05T04:32:48.998Z,940.77
2018-07-05T04:33:57.184Z,940.80
2018-07-05T04:35:05.139Z,940.79
2018-07-05T04:36:13.201Z,940.74
2018-07-05T04:37:21.262Z,940.80
2018-07-05T04:38:29.831Z,940.81
2018-07-05T04:39:37.454Z,940.81
2018-07-05T04:40:46.145Z,940.83
2018-07-05T04:41:54.159Z,940.79
2018-07-05T04:43:02.275Z,940.79
2018-07-05T04:44:09.719Z,940.77
2018-07-05T04:46:28.543Z,940.84
2018-07-05T04:47:33.870Z,940.79
2018-07-05T04:48:41.997Z,940.79
2018-07-05T04:49:50.051Z,940.82
2018-07-05T04:50:58.106Z,940.81
2018-07-05T04:52:06.268Z,940.77
2018-07-05T04:53:14.253Z,940.76
2018-07-05T04:54:22.288Z,940.73
2018-07-05T04:55:30.424Z,940.75
2018-07-05T04:56:38.439Z,940.76
2018-07-05T04:57:46.553Z,940.73
2018-07-05T04:58:54.564Z,940.70
2018-07-05T05:00:02.676Z,940.69
2018-07-05T05:01:10.708Z,940.66
2018-07-05T05:02:18.786Z,940.62
2018-07-05T05:03:26.858Z,940.68
2018-07-05T05:04:34.909Z,940.65
2018-07-05T05:05:42.986Z,940.67
2018-07-05T05:06:51.055Z,940.75
2018-07-05T05:07:59.540Z,940.70
2018-07-05T05:09:07.174Z,940.72
2018-07-05T05:10:15.349Z,940.71
2018-07-05T05:11:23.320Z,940.73
2018-07-05T05:12:31.508Z,940.69
2018-07-05T05:13:39.472Z,940.70
2018-07-05T05:14:47.542Z,940.71
2018-07-05T05:15:55.609Z,940.72
2018-07-05T05:17:03.661Z,940.76
2018-07-05T05:18:11.791Z,940.80
2018-07-05T05:19:19.805Z,940.78
2018-07-05T05:20:27.902Z,940.77
2018-07-05T05:21:35.984Z,940.78
2018-07-05T05:22:43.999Z,940.74
2018-07-05T05:23:52.191Z,940.74
2018-07-05T05:25:00.138Z,940.77
2018-07-05T05:26:08.207Z,940.73
2018-07-05T05:27:16.277Z,940.70
2018-07-05T05:28:24.450Z,940.71
2018-07-05T05:29:32.446Z,940.68
2018-07-05T05:30:40.467Z,940.69
2018-07-05T05:31:48.548Z,940.66
2018-07-05T05:32:56.635Z,940.60
2018-07-05T05:34:04.690Z,940.58
2018-07-05T05:35:12.876Z,940.56
2018-07-05T05:36:20.826Z,940.51
2018-07-05T05:37:28.895Z,940.51
2018-07-05T05:38:36.958Z,940.52
2018-07-05T05:39:45.027Z,940.48
2018-07-05T05:40:53.208Z,940.45
2018-07-05T05:42:01.176Z,940.39
2018-07-05T05:43:09.276Z,940.38
2018-07-05T05:44:17.354Z,940.37
2018-07-05T05:45:25.355Z,940.33
2018-07-05T05:46:33.680Z,940.34
2018-07-05T05:47:41.507Z,940.36
2018-07-05T05:48:49.576Z,940.36
2018-07-05T05:49:57.636Z,940.36
2018-07-05T05:51:05.705Z,940.34
2018-07-05T05:52:13.868Z,940.32
2018-07-05T05:53:21.831Z,940.32
2018-07-05T05:54:29.917Z,940.28
2018-07-05T05:55:38.018Z,940.28
2018-07-05T05:56:46.039Z,940.24
2018-07-05T05:57:54.131Z,940.25
2018-07-05T05:59:02.170Z,940.23
2018-07-05T06:00:10.361Z,940.24
2018-07-05T06:01:18.306Z,940.26
2018-07-05T06:02:26.484Z,940.27
2018-07-05T06:03:34.480Z,940.25
2018-07-05T06:04:42.517Z,940.21
2018-07-05T06:05:50.574Z,940.23
2018-07-05T06:06:58.652Z,940.21
2018-07-05T06:08:06.828Z,940.23
2018-07-05T06:09:14.784Z,940.24
2018-07-05T06:10:22.856Z,940.28
2018-07-05T06:11:30.916Z,940.35
2018-07-05T06:12:39.033Z,940.38
2018-07-05T06:13:47.044Z,940.37
2018-07-05T06:14:55.114Z,940.31
2018-07-05T06:16:03.277Z,940.37
2018-07-05T06:17:11.254Z,940.36
2018-07-05T06:18:19.367Z,940.42
2018-07-05T06:19:27.383Z,940.46
2018-07-05T06:20:35.455Z,940.47
2018-07-05T06:21:43.510Z,940.50
2018-07-05T06:22:51.707Z,940.50
2018-07-05T06:23:59.653Z,940.47
2018-07-05T06:25:07.719Z,940.43
2018-07-05T06:26:15.779Z,940.39
2018-07-05T06:27:23.835Z,940.34
2018-07-05T06:28:32.044Z,940.30
2018-07-05T06:29:39.987Z,940.32
2018-07-05T06:30:48.060Z,940.31
2018-07-05T06:31:56.165Z,940.28
2018-07-05T06:33:04.174Z,940.29
2018-07-05T06:34:12.446Z,940.33
2018-07-05T06:35:20.335Z,940.35
2018-07-05T06:36:28.395Z,940.32
2018-07-05T06:37:36.466Z,940.33
2018-07-05T06:38:44.526Z,940.37
2018-07-05T06:39:52.647Z,940.38
2018-07-05T06:41:00.668Z,940.35
2018-07-05T06:42:08.736Z,940.33
2018-07-05T06:43:16.792Z,940.33
2018-07-05T06:44:24.862Z,940.29
2018-07-05T06:45:33.062Z,940.30
2018-07-05T06:46:40.992Z,940.31
2018-07-05T06:47:49.112Z,940.30
2018-07-05T06:48:57.142Z,940.31
2018-07-05T06:50:05.228Z,940.30
2018-07-05T06:51:13.384Z,940.28
2018-07-05T06:52:21.563Z,940.26
2018-07-05T06:53:29.606Z,940.23
2018-07-05T06:54:37.692Z,940.23
2018-07-05T06:55:45.745Z,940.23
2018-07-05T06:56:53.900Z,940.24
2018-07-05T06:58:01.905Z,940.26
2018-07-05T06:59:09.972Z,940.29
2018-07-05T07:00:18.016Z,940.37
2018-07-05T07:01:26.081Z,940.41
2018-07-05T07:02:34.167Z,940.41
2018-07-05T07:03:42.209Z,940.42
2018-07-05T07:04:50.274Z,940.46
2018-07-05T07:05:58.356Z,940.52
2018-07-05T07:07:06.422Z,940.59
2018-07-05T07:08:14.528Z,940.59
2018-07-05T07:09:22.548Z,940.66
2018-07-05T07:10:30.628Z,940.68
2018-07-05T07:11:38.680Z,940.75
2018-07-05T07:12:46.872Z,940.78
2018-07-05T07:13:54.818Z,940.75
2018-07-05T07:15:02.906Z,940.80
2018-07-05T07:16:10.963Z,940.78
2018-07-05T07:17:19.037Z,940.79
2018-07-05T07:18:27.148Z,940.81
2018-07-05T07:19:35.175Z,940.80
2018-07-05T07:20:43.237Z,940.80
2018-07-05T07:21:51.314Z,940.82
2018-07-05T07:22:59.372Z,940.80
2018-07-05T07:24:07.573Z,940.81
2018-07-05T07:25:15.519Z,940.84
2018-07-05T07:26:23.553Z,940.85
2018-07-05T07:27:32.667Z,940.87
2018-07-05T07:28:40.720Z,940.85
2018-07-05T07:29:48.826Z,940.82
2018-07-05T07:30:56.862Z,940.82
2018-07-05T07:32:04.921Z,940.81
2018-07-05T07:33:13.105Z,940.78
2018-07-05T07:34:21.060Z,940.78
2018-07-05T07:35:29.232Z,940.83
2018-07-05T07:36:37.193Z,940.86
2018-07-05T07:37:45.347Z,940.85
2018-07-05T07:38:53.328Z,940.85
2018-07-05T07:40:01.407Z,940.84
2018-07-05T07:41:09.573Z,940.86
2018-07-05T07:42:17.539Z,940.88
2018-07-05T07:43:25.612Z,940.88
2018-07-05T07:44:33.650Z,940.88
2018-07-05T07:45:41.812Z,940.88
2018-07-05T07:46:50.054Z,940.88
2018-07-05T07:47:57.878Z,940.94
2018-07-05T07:49:05.995Z,940.97
2018-07-05T07:50:14.008Z,940.95
2018-07-05T07:51:22.188Z,941.00
2018-07-05T07:52:30.194Z,941.00
2018-07-05T07:53:38.241Z,941.08
2018-07-05T07:54:46.302Z,941.06
2018-07-05T07:55:54.353Z,941.08
2018-07-05T07:57:02.630Z,941.08
2018-07-05T07:58:10.779Z,941.12
2018-07-05T07:59:18.771Z,941.16
2018-07-05T08:00:26.837Z,941.17
2018-07-05T08:01:34.925Z,941.19
2018-07-05T08:02:43.042Z,941.21
2018-07-05T08:03:51.058Z,941.16
2018-07-05T08:04:59.246Z,941.17
2018-07-05T08:06:07.191Z,941.14
2018-07-05T08:07:16.676Z,941.16
2018-07-05T08:08:24.993Z,941.15
2018-07-05T08:09:33.005Z,941.19
2018-07-05T08:10:41.082Z,941.22
2018-07-05T08:11:49.138Z,941.26
2018-07-05T08:12:57.262Z,941.25
2018-07-05T08:14:05.279Z,941.27
2018-07-05T08:15:13.478Z,941.28
2018-07-05T08:16:21.434Z,941.27
2018-07-05T08:17:29.488Z,941.30
2018-07-05T08:18:37.676Z,941.29
2018-07-05T08:19:45.629Z,941.28
2018-07-05T08:20:53.744Z,941.28
2018-07-05T08:22:01.778Z,941.28
2018-07-05T08:24:27.121Z,941.26
2018-07-05T08:25:35.076Z,941.25
2018-07-05T08:26:43.150Z,941.32
2018-07-05T08:27:52.222Z,941.32
2018-07-05T08:29:00.256Z,941.33
2018-07-05T08:30:08.399Z,941.37
2018-07-05T08:31:16.427Z,941.39
2018-07-05T08:32:24.511Z,941.42
2018-07-05T08:33:32.564Z,941.41
2018-07-05T08:34:40.636Z,941.42
2018-07-05T08:35:48.820Z,941.45
2018-07-05T08:36:56.761Z,941.49
2018-07-05T08:38:04.848Z,941.53
2018-07-05T08:39:12.921Z,941.51
2018-07-05T08:40:20.990Z,941.55
2018-07-05T08:41:29.104Z,941.58
2018-07-05T08:42:37.119Z,941.61
2018-07-05T08:43:45.195Z,941.66
2018-07-05T08:44:54.135Z,941.67
2018-07-05T08:46:01.343Z,941.70
2018-07-05T08:47:09.524Z,941.74
2018-07-05T08:48:17.477Z,941.75
2018-07-05T08:49:25.552Z,941.81
2018-07-05T08:50:33.587Z,941.81
2018-07-05T08:51:41.728Z,941.84
2018-07-05T08:52:49.790Z,941.80
2018-07-05T08:53:57.834Z,941.82
2018-07-05T08:55:05.910Z,941.83
2018-07-05T08:56:13.948Z,941.80
2018-07-05T08:57:22.036Z,941.83
2018-07-05T08:58:30.109Z,941.86
2018-07-05T08:59:38.203Z,941.91
2018-07-05T09:00:46.254Z,941.85
2018-07-05T09:01:54.310Z,941.86
2018-07-05T09:03:02.445Z,941.80
2018-07-05T09:04:10.468Z,941.82
2018-07-05T09:05:18.564Z,941.85
2018-07-05T09:06:26.605Z,941.80
2018-07-05T09:07:34.726Z,941.78
2018-07-05T09:08:42.757Z,941.79
2018-07-05T09:09:50.828Z,941.80
2018-07-05T09:10:58.876Z,941.76
2018-07-05T09:12:06.960Z,941.84
2018-07-05T09:13:15.075Z,941.84
2018-07-05T09:14:23.096Z,941.84
2018-07-05T09:15:31.156Z,941.81
2018-07-05T09:16:39.249Z,941.84
2018-07-05T09:17:47.500Z,941.89
2018-07-05T09:18:55.500Z,941.88
2018-07-05T09:20:03.444Z,941.91
2018-07-05T09:21:11.531Z,941.87
2018-07-05T09:22:19.712Z,941.89
2018-07-05T09:23:28.058Z,941.90
2018-07-05T09:24:35.905Z,941.94
2018-07-05T09:25:43.810Z,941.94
2018-07-05T09:26:52.045Z,941.98
2018-07-05T09:27:59.949Z,941.98
2018-07-05T09:29:08.016Z,941.98
2018-07-05T09:30:16.184Z,942.03
2018-07-05T09:31:24.161Z,942.02
2018-07-05T09:32:32.233Z,941.99
2018-07-05T09:33:40.298Z,941.92
2018-07-05T09:34:48.361Z,942.00
2018-07-05T09:35:56.500Z,942.02
2018-07-05T09:37:04.526Z,942.00
2018-07-05T09:38:12.634Z,942.03
2018-07-05T09:39:20.664Z,941.98
2018-07-05T09:40:28.737Z,942.05
2018-07-05T09:41:36.905Z,942.02
2018-07-05T09:42:44.879Z,942.04
2018-07-05T09:43:52.951Z,942.05
2018-07-05T09:45:01.027Z,942.02
2018-07-05T09:46:09.081Z,942.08
2018-07-05T09:47:17.278Z,942.06
2018-07-05T09:48:25.237Z,942.05
2018-07-05T09:49:33.310Z,942.09
2018-07-05T09:50:41.479Z,942.09
2018-07-05T09:51:49.443Z,942.12
2018-07-05T09:52:57.592Z,942.09
2018-07-05T09:54:05.602Z,942.14
2018-07-05T09:55:13.646Z,942.14
2018-07-05T09:56:21.740Z,942.06
2018-07-05T09:57:29.859Z,942.07
2018-07-05T09:58:37.862Z,942.06
2018-07-05T09:59:45.944Z,942.06
2018-07-05T10:00:54.255Z,942.07
2018-07-05T10:02:02.078Z,942.19
2018-07-05T10:03:10.200Z,942.16
2018-07-05T10:04:18.252Z,942.24
2018-07-05T10:05:26.326Z,942.30
2018-07-05T10:06:34.382Z,942.18
2018-07-05T10:07:42.511Z,942.23
2018-07-05T10:08:50.524Z,942.24
2018-07-05T10:09:58.597Z,942.20
2018-07-05T10:11:07.283Z,942.19
2018-07-05T10:12:15.377Z,942.13
2018-07-05T10:13:23.669Z,942.14
2018-07-05T10:14:31.503Z,942.10
2018-07-05T10:15:39.579Z,942.08
2018-07-05T10:16:47.642Z,942.06
2018-07-05T10:17:55.726Z,942.03
2018-07-05T10:19:03.868Z,942.02
2018-07-05T10:20:11.859Z,941.92
2018-07-05T10:21:19.927Z,941.92
2018-07-05T10:22:27.996Z,941.93
2018-07-05T10:23:36.122Z,941.90
2018-07-05T10:24:44.239Z,941.89
2018-07-05T10:25:52.220Z,941.89
2018-07-05T10:27:00.339Z,941.86
2018-07-05T10:28:08.376Z,941.82
2018-07-05T10:29:16.431Z,941.82
2018-07-05T10:30:24.617Z,941.81
2018-07-05T10:31:32.572Z,941.75
2018-07-05T10:32:40.643Z,941.75
2018-07-05T10:33:48.712Z,941.67
2018-07-05T10:34:56.796Z,941.66
2018-07-05T10:36:04.911Z,941.66
2018-07-05T10:37:12.942Z,941.59
2018-07-05T10:38:21.001Z,941.56
2018-07-05T10:39:29.315Z,941.52
2018-07-05T10:40:37.151Z,941.47
2018-07-05T10:41:45.272Z,941.47
2018-07-05T10:42:53.308Z,941.45
2018-07-05T10:44:01.366Z,941.50
2018-07-05T10:45:09.448Z,941.54
2018-07-05T10:46:17.502Z,941.56
2018-07-05T10:47:25.698Z,941.57
2018-07-05T10:48:33.635Z,941.60
2018-07-05T10:49:41.715Z,941.61
2018-07-05T10:50:49.791Z,941.61
2018-07-05T10:51:57.858Z,941.61
2018-07-05T10:53:05.984Z,941.68
2018-07-05T10:54:13.998Z,941.70
2018-07-05T10:55:22.154Z,941.74
2018-07-05T10:56:30.149Z,941.72
2018-07-05T10:57:38.271Z,941.73
2018-07-05T10:58:46.289Z,941.78
2018-07-05T10:59:54.342Z,941.76
2018-07-05T11:01:02.450Z,941.78
2018-07-05T11:02:10.510Z,941.77
2018-07-05T11:03:18.838Z,941.78
2018-07-05T11:04:26.850Z,941.74
2018-07-05T11:05:34.922Z,941.70
2018-07-05T11:06:43.002Z,941.69
2018-07-05T11:07:51.116Z,941.65
2018-07-05T11:08:59.132Z,941.65
2018-07-05T11:10:07.211Z,941.65
2018-07-05T11:11:15.327Z,941.59
2018-07-05T11:12:23.341Z,941.58
2018-07-05T11:13:31.435Z,941.58
2018-07-05T11:14:39.536Z,941.59
2018-07-05T11:15:47.572Z,941.64
2018-07-05T11:16:55.658Z,941.65
2018-07-05T11:18:03.740Z,941.69
2018-07-05T11:19:11.774Z,941.72
2018-07-05T11:20:19.863Z,941.75
2018-07-05T11:21:27.928Z,941.80
2018-07-05T11:22:36.009Z,941.84
2018-07-05T11:23:44.170Z,941.85
2018-07-05T11:24:52.145Z,941.87
2018-07-05T11:26:00.227Z,941.88
2018-07-05T11:27:08.340Z,941.89
2018-07-05T11:28:16.364Z,941.89
2018-07-05T11:29:24.523Z,941.88
2018-07-05T11:30:32.510Z,941.89
2018-07-05T11:31:40.580Z,941.87
2018-07-05T11:32:48.647Z,941.84
2018-07-05T11:33:56.751Z,941.84
2018-07-05T11:35:04.824Z,941.76
2018-07-05T11:36:12.860Z,941.74
2018-07-05T11:37:20.931Z,941.74
2018-07-05T11:38:29.009Z,941.75
2018-07-05T11:39:37.088Z,941.75
2018-07-05T11:40:45.206Z,941.72
2018-07-05T11:41:53.228Z,941.71
2018-07-05T11:43:01.484Z,941.63
2018-07-05T11:44:09.362Z,941.61
2018-07-05T11:45:17.448Z,941.58
2018-07-05T11:46:25.630Z,941.57
2018-07-05T11:47:33.562Z,941.59
2018-07-05T11:48:41.654Z,941.62
2018-07-05T11:49:49.732Z,941.65
2018-07-05T11:50:57.806Z,941.69
2018-07-05T11:52:05.939Z,941.79
2018-07-05T11:53:13.915Z,941.81
2018-07-05T11:54:22.019Z,941.86
2018-07-05T11:55:30.097Z,941.84
2018-07-05T11:56:38.167Z,941.87
2018-07-05T11:57:46.291Z,941.88
2018-07-05T11:58:54.297Z,941.89
2018-07-05T12:00:02.384Z,941.91
2018-07-05T12:01:10.440Z,941.91
2018-07-05T12:02:18.534Z,941.90
2018-07-05T12:03:26.631Z,941.92
2018-07-05T12:04:34.652Z,941.94
2018-07-05T12:05:42.738Z,941.94
2018-07-05T12:06:50.803Z,941.90
2018-07-05T12:07:58.926Z,941.93
2018-07-05T12:09:06.943Z,941.92
2018-07-05T12:10:15.026Z,941.95
2018-07-05T12:11:23.102Z,941.99
2018-07-05T12:12:31.297Z,941.99
2018-07-05T12:13:39.254Z,941.97
2018-07-05T12:14:47.328Z,941.91
2018-07-05T12:15:55.407Z,941.88
2018-07-05T12:17:03.446Z,941.89
2018-07-05T12:18:11.648Z,941.90
2018-07-05T12:19:19.607Z,941.86
2018-07-05T12:20:27.674Z,941.85
2018-07-05T12:21:35.748Z,941.88
2018-07-05T12:22:43.824Z,941.84
2018-07-05T12:23:51.966Z,941.78
2018-07-05T12:24:59.970Z,941.73
2018-07-05T12:26:08.057Z,941.77
2018-07-05T12:27:16.143Z,941.69
2018-07-05T12:28:24.326Z,941.71
2018-07-05T12:29:32.378Z,941.73
2018-07-05T12:30:40.332Z,941.71
2018-07-05T12:31:48.419Z,941.73
2018-07-05T12:32:56.537Z,941.69
2018-07-05T12:34:04.563Z,941.72
2018-07-05T12:35:12.707Z,941.70
2018-07-05T12:36:20.700Z,941.62
2018-07-05T12:37:28.799Z,941.63
2018-07-05T12:38:36.861Z,941.65
2018-07-05T12:39:44.947Z,941.66
2018-07-05T12:40:53.058Z,941.62
2018-07-05T12:42:01.086Z,941.67
2018-07-05T12:43:09.146Z,941.66
2018-07-05T12:44:17.327Z,941.65
2018-07-05T12:45:25.278Z,941.66
2018-07-05T12:46:33.465Z,941.63
2018-07-05T12:47:41.424Z,941.63
2018-07-05T12:48:49.541Z,941.60
2018-07-05T12:49:57.596Z,941.54
2018-07-05T12:51:05.657Z,941.52
2018-07-05T12:52:13.767Z,941.44
2018-07-05T12:53:21.806Z,941.48
2018-07-05T12:54:29.869Z,941.51
2018-07-05T12:55:37.941Z,941.49
2018-07-05T12:56:46.059Z,941.48
2018-07-05T12:57:54.073Z,941.48
2018-07-05T12:59:02.149Z,941.55
2018-07-05T13:00:10.336Z,941.54
2018-07-05T13:01:18.294Z,941.50
2018-07-05T13:02:26.426Z,941.50
2018-07-05T13:03:34.443Z,941.51
2018-07-05T13:04:42.523Z,941.51
2018-07-05T13:05:50.575Z,941.53
2018-07-05T13:06:58.654Z,941.56
2018-07-05T13:08:06.769Z,941.57
2018-07-05T13:09:14.804Z,941.50
2018-07-05T13:10:22.867Z,941.47
2018-07-05T13:11:30.945Z,941.51
2018-07-05T13:12:39.097Z,941.47
2018-07-05T13:13:47.115Z,941.43
2018-07-05T13:14:55.156Z,941.45
2018-07-05T13:16:03.351Z,941.53
2018-07-05T13:17:12.296Z,941.52
2018-07-05T13:18:20.495Z,941.50
2018-07-05T13:19:28.452Z,941.52
2018-07-05T13:20:36.516Z,941.56
2018-07-05T13:21:44.579Z,941.54
2018-07-05T13:22:52.760Z,941.51
2018-07-05T13:24:00.764Z,941.53
2018-07-05T13:25:08.806Z,941.53
2018-07-05T13:26:16.884Z,941.58
2018-07-05T13:27:24.944Z,941.55
2018-07-05T13:28:33.156Z,941.54
2018-07-05T13:29:41.141Z,941.54
2018-07-05T13:30:49.169Z,941.48
2018-07-05T13:31:57.304Z,941.46
2018-07-05T13:33:05.382Z,941.44
2018-07-05T13:34:13.531Z,941.45
2018-07-05T13:35:21.467Z,941.43
2018-07-05T13:36:29.542Z,941.49
2018-07-05T13:37:37.611Z,941.41
2018-07-05T13:38:45.699Z,941.42
2018-07-05T13:39:53.832Z,941.49
2018-07-05T13:41:01.840Z,941.52
2018-07-05T13:42:09.901Z,941.46
2018-07-05T13:43:17.983Z,941.46
2018-07-05T13:44:26.050Z,941.45
2018-07-05T13:45:34.217Z,941.53
2018-07-05T13:46:42.188Z,941.45
2018-07-05T13:47:50.320Z,941.40
2018-07-05T13:48:58.331Z,941.35
2018-07-05T13:50:06.557Z,941.36
2018-07-05T13:51:14.736Z,941.41
2018-07-05T13:52:22.561Z,941.36
2018-07-05T13:53:30.710Z,941.35
2018-07-05T13:54:38.716Z,941.40
2018-07-05T13:55:46.762Z,941.37
2018-07-05T13:56:54.882Z,941.35
2018-07-05T13:58:02.923Z,941.39
2018-07-05T13:59:10.978Z,941.43
2018-07-05T14:00:19.059Z,941.40
2018-07-05T14:01:27.118Z,941.39
2018-07-05T14:02:35.243Z,941.44
2018-07-05T14:03:43.264Z,941.46
2018-07-05T14:04:51.348Z,941.55
2018-07-05T14:05:59.412Z,941.54
2018-07-05T14:07:07.486Z,941.57
2018-07-05T14:08:15.596Z,941.59
2018-07-05T14:09:23.605Z,941.59
2018-07-05T14:10:31.697Z,941.66
2018-07-05T14:11:39.768Z,941.63
2018-07-05T14:12:47.884Z,941.70
2018-07-05T14:13:55.926Z,941.62